Time;durP1;ratioP1;P1;durP2;ratioP2;P2;SDS_P1;SDS_P2;PMS_P1;PMS_P2;Temp;Humidity;BMP_temperature;BMP_pressure;BME280_temperature;BME280_humidity;BME280_pressure;Samples;Min_cycle;Max_cycle;Signal;HPM_P1;HPM_P2
2022/04/20 00:00:15;;;;;;;;;;;;;;;;;;5072171;28;19912;-84
2022/04/20 00:02:40;;;;;;;;;;;;;;;;;;5069165;28;19917;-84
2022/04/20 00:05:05;;;;;;;;;;;;;;;;;;5052276;28;19917;-84
2022/04/20 00:07:31;;;;;;;;;;;;;;;;;;5052095;28;19909;-84
2022/04/20 00:09:56;;;;;;;;;;;;;;;;;;5051859;28;19996;-84
2022/04/20 00:12:21;;;;;;;;;;;;;;;;;;5053262;28;19916;-84
2022/04/20 00:14:46;;;;;;;;;;;;;;;;;;5059344;28;19916;-84
2022/04/20 00:17:11;;;;;;;;;;;;;;;;;;5073459;28;19909;-84
2022/04/20 00:19:36;;;;;;;;;;;;;;;;;;5073316;28;19913;-84
2022/04/20 00:22:01;;;;;;;;;;;;;;;;;;5072419;28;19912;-84
2022/04/20 00:24:27;;;;;;;;;;;;;;;;;;5073332;28;19952;-83
2022/04/20 00:26:52;;;;;;;;;;;;;;;;;;5068021;28;19917;-84
2022/04/20 00:29:17;;;;;;;;;;;;;;;;;;5064160;28;19916;-84
2022/04/20 00:31:42;;;;;;;;;;;;;;;;;;5061647;28;20017;-84
2022/04/20 00:34:07;;;;;;;;;;;;;;;;;;5051998;28;20444;-84
2022/04/20 00:36:32;;;;;;;;;;;;;;;;;;5051986;28;19909;-84
2022/04/20 00:38:57;;;;;;;;;;;;;;;;;;5060170;28;19917;-84
2022/04/20 00:41:22;;;;;;;;;;;;;;;;;;5071849;28;19915;-84
2022/04/20 00:43:48;;;;;;;;;;;;;;;;;;5071955;28;19909;-84
2022/04/20 00:46:13;;;;;;;;;;;;;;;;;;5073027;28;19999;-84
2022/04/20 00:48:38;;;;;;;;;;;;;;;;;;5071693;28;19912;-84
2022/04/20 00:51:03;;;;;;;;;;;;;;;;;;5069189;28;19952;-84
2022/04/20 00:53:28;;;;;;;;;;;;;;;;;;5056923;28;19958;-84
2022/04/20 00:55:53;;;;;;;;;;;;;;;;;;5085362;28;19934;-84
2022/04/20 00:58:18;;;;;;;;;;;;;;;;;;5053002;28;19931;-84
2022/04/20 01:00:43;;;;;;;;;;;;;;;;;;5085775;28;20410;-84
2022/04/20 01:03:08;;;;;;;;;;;;;;;;;;5088945;28;20425;-84
2022/04/20 01:05:34;;;;;;;;;;;;;;;;;;5062913;28;20004;-84
2022/04/20 01:07:59;;;;;;;;;;;;;;;;;;5075432;28;19952;-84
2022/04/20 01:10:24;;;;;;;;;;;;;;;;;;5076537;28;19944;-84
2022/04/20 01:12:49;;;;;;;;;;;;;;;;;;5075276;28;20272;-84
2022/04/20 01:15:14;;;;;;;;;;;;;;;;;;5071251;28;19920;-84
2022/04/20 01:17:39;;;;;;;;;;;;;;;;;;5055329;28;20408;-84
2022/04/20 01:20:05;;;;;;;;;;;;;;;;;;5055348;28;20019;-84
2022/04/20 01:22:30;;;;;;;;;;;;;;;;;;5056428;28;20315;-84
2022/04/20 01:24:56;;;;;;;;;;;;;;;;;;5055329;28;19919;-84
2022/04/20 01:27:21;;;;;;;;;;;;;;;;;;5062574;28;19919;-84
2022/04/20 01:29:46;;;;;;;;;;;;;;;;;;5056308;28;19913;-84
2022/04/20 01:32:11;;;;;;;;;;;;;;;;;;5059750;28;19942;-84
2022/04/20 01:34:36;;;;;;;;;;;;;;;;;;5076222;28;19908;-84
2022/04/20 01:37:01;;;;;;;;;;;;;;;;;;5076343;28;19908;-84
2022/04/20 01:39:27;;;;;;;;;;;;;;;;;;5070984;28;19939;-84
2022/04/20 01:41:52;;;;;;;;;;;;;;;;;;5056136;28;20398;-84
2022/04/20 01:44:17;;;;;;;;;;;;;;;;;;5054818;28;19909;-84
2022/04/20 01:46:42;;;;;;;;;;;;;;;;;;5056039;28;19919;-84
2022/04/20 01:49:07;;;;;;;;;;;;;;;;;;5056079;28;20008;-84
2022/04/20 01:51:50;;;;;;;;;;;;;;;;;;5062614;28;19920;-84
2022/04/20 01:54:15;;;;;;;;;;;;;;;;;;5074359;28;19958;-84
2022/04/20 01:56:40;;;;;;;;;;;;;;;;;;5075828;28;19908;-84
2022/04/20 01:59:05;;;;;;;;;;;;;;;;;;5074454;28;20512;-84
2022/04/20 02:04:14;;;;;;;;;;;;;;;;;;5064162;28;20011;-84
2022/04/20 02:06:39;;;;;;;;;;;;;;;;;;5055650;28;20003;-84
2022/04/20 02:09:05;;;;;;;;;;;;;;;;;;5054406;28;20007;-84
2022/04/20 02:11:30;;;;;;;;;;;;;;;;;;5055734;28;19909;-84
2022/04/20 02:13:55;;;;;;;;;;;;;;;;;;5053586;28;19917;-84
2022/04/20 02:16:20;;;;;;;;;;;;;;;;;;5066419;28;20311;-84
2022/04/20 02:18:46;;;;;;;;;;;;;;;;;;5073952;28;19934;-85
2022/04/20 02:21:11;;;;;;;;;;;;;;;;;;5073373;28;20406;-84
2022/04/20 02:23:36;;;;;;;;;;;;;;;;;;5074140;28;19913;-84
2022/04/20 02:26:01;;;;;;;;;;;;;;;;;;5075335;28;19908;-84
2022/04/20 02:28:26;;;;;;;;;;;;;;;;;;5069746;28;20333;-84
2022/04/20 02:30:51;;;;;;;;;;;;;;;;;;5055103;28;19915;-84
2022/04/20 02:33:16;;;;;;;;;;;;;;;;;;5055250;28;19950;-84
2022/04/20 02:35:41;;;;;;;;;;;;;;;;;;5054031;28;20679;-84
2022/04/20 02:38:06;;;;;;;;;;;;;;;;;;5055012;28;19908;-84
2022/04/20 02:40:31;;;;;;;;;;;;;;;;;;5067811;28;19916;-84
2022/04/20 02:42:57;;;;;;;;;;;;;;;;;;5073780;28;19916;-84
2022/04/20 02:45:22;;;;;;;;;;;;;;;;;;5073590;28;19905;-84
2022/04/20 02:47:47;;;;;;;;;;;;;;;;;;5073696;28;20391;-84
2022/04/20 02:50:12;;;;;;;;;;;;;;;;;;5073457;28;19905;-84
2022/04/20 02:52:37;;;;;;;;;;;;;;;;;;5073932;28;19913;-84
2022/04/20 02:55:02;;;;;;;;;;;;;;;;;;5074760;28;19909;-84
2022/04/20 02:57:28;;;;;;;;;;;;;;;;;;5073447;28;19908;-84
2022/04/20 02:59:53;;;;;;;;;;;;;;;;;;5073380;28;19916;-84
2022/04/20 03:02:18;;;;;;;;;;;;;;;;;;5073164;28;19916;-84
2022/04/20 03:04:44;;;;;;;;;;;;;;;;;;5071538;28;20014;-84
2022/04/20 03:07:09;;;;;;;;;;;;;;;;;;5086243;28;19909;-84
2022/04/20 03:09:34;;;;;;;;;;;;;;;;;;5087003;28;20246;-84
2022/04/20 03:11:59;;;;;;;;;;;;;;;;;;5086747;28;20365;-84
2022/04/20 03:14:24;;;;;;;;;;;;;;;;;;5053944;28;19909;-83
2022/04/20 03:16:49;;;;;;;;;;;;;;;;;;5085380;28;19912;-83
2022/04/20 03:19:15;;;;;;;;;;;;;;;;;;5086661;28;19917;-84
2022/04/20 03:21:40;;;;;;;;;;;;;;;;;;5086524;28;19963;-84
2022/04/20 03:24:05;;;;;;;;;;;;;;;;;;5093883;28;19912;-84
2022/04/20 03:26:30;;;;;;;;;;;;;;;;;;5074132;28;19915;-84
2022/04/20 03:28:55;;;;;;;;;;;;;;;;;;5072871;28;19909;-84
2022/04/20 03:31:20;;;;;;;;;;;;;;;;;;5074248;28;20256;-84
2022/04/20 03:33:45;;;;;;;;;;;;;;;;;;5068265;28;20398;-84
2022/04/20 03:36:10;;;;;;;;;;;;;;;;;;5052794;28;20280;-84
2022/04/20 03:38:36;;;;;;;;;;;;;;;;;;5052505;28;19912;-84
2022/04/20 03:41:03;;;;;;;;;;;;;;;;;;5052827;28;19909;-84
2022/04/20 03:43:28;;;;;;;;;;;;;;;;;;5052650;28;19916;-84
2022/04/20 03:45:53;;;;;;;;;;;;;;;;;;5058702;28;19916;-84
2022/04/20 03:48:19;;;;;;;;;;;;;;;;;;5072347;28;19920;-84
2022/04/20 03:50:44;;;;;;;;;;;;;;;;;;5072473;28;20314;-84
2022/04/20 03:53:09;;;;;;;;;;;;;;;;;;5072385;28;19909;-84
2022/04/20 03:55:34;;;;;;;;;;;;;;;;;;5072554;28;19909;-84
2022/04/20 03:57:59;;;;;;;;;;;;;;;;;;5068341;28;19913;-84
2022/04/20 04:00:25;;;;;;;;;;;;;;;;;;5051961;28;19913;-84
2022/04/20 04:02:50;;;;;;;;;;;;;;;;;;5052162;28;20008;-84
2022/04/20 04:05:15;;;;;;;;;;;;;;;;;;5052226;28;19970;-85
2022/04/20 04:07:41;;;;;;;;;;;;;;;;;;5052389;28;20000;-84
2022/04/20 04:10:06;;;;;;;;;;;;;;;;;;5052739;28;19939;-84
2022/04/20 04:12:31;;;;;;;;;;;;;;;;;;5053026;28;20003;-84
2022/04/20 04:14:57;;;;;;;;;;;;;;;;;;5052176;28;20375;-84
2022/04/20 04:17:22;;;;;;;;;;;;;;;;;;5052088;28;19909;-84
2022/04/20 04:19:47;;;;;;;;;;;;;;;;;;5051926;28;19913;-84
2022/04/20 04:22:12;;;;;;;;;;;;;;;;;;5057510;28;19912;-84
2022/04/20 04:24:39;;;;;;;;;;;;;;;;;;5073513;28;19912;-84
2022/04/20 04:27:05;;;;;;;;;;;;;;;;;;5072127;28;19908;-84
2022/04/20 04:29:31;;;;;;;;;;;;;;;;;;5071910;28;19935;-84
2022/04/20 04:31:56;;;;;;;;;;;;;;;;;;5071968;28;20011;-84
2022/04/20 04:34:21;;;;;;;;;;;;;;;;;;5072479;28;19943;-84
2022/04/20 04:36:47;;;;;;;;;;;;;;;;;;5074413;28;19943;-84
2022/04/20 04:39:14;;;;;;;;;;;;;;;;;;5077229;28;19948;-84
2022/04/20 04:41:39;;;;;;;;;;;;;;;;;;5075976;28;19909;-84
2022/04/20 04:44:04;;;;;;;;;;;;;;;;;;5075815;28;19908;-84
2022/04/20 04:49:13;;;;;;;;;;;;;;;;;;5057166;28;19912;-84
2022/04/20 04:51:38;;;;;;;;;;;;;;;;;;5056851;28;19905;-84
2022/04/20 04:54:03;;;;;;;;;;;;;;;;;;5056996;28;19909;-84
2022/04/20 04:56:28;;;;;;;;;;;;;;;;;;5055671;28;19911;-84
2022/04/20 04:58:53;;;;;;;;;;;;;;;;;;5056105;28;20311;-85
2022/04/20 05:01:18;;;;;;;;;;;;;;;;;;5055535;28;19915;-84
2022/04/20 05:03:43;;;;;;;;;;;;;;;;;;5055543;28;19912;-84
2022/04/20 05:06:08;;;;;;;;;;;;;;;;;;5056821;28;20276;-84
2022/04/20 05:08:34;;;;;;;;;;;;;;;;;;5056621;28;20348;-84
2022/04/20 05:10:59;;;;;;;;;;;;;;;;;;5061304;28;19912;-84
2022/04/20 05:13:24;;;;;;;;;;;;;;;;;;5076652;28;19908;-85
2022/04/20 05:15:49;;;;;;;;;;;;;;;;;;5076510;28;20364;-84
2022/04/20 05:18:14;;;;;;;;;;;;;;;;;;5076376;28;19909;-84
2022/04/20 05:20:39;;;;;;;;;;;;;;;;;;5074981;28;19958;-84
2022/04/20 05:23:04;;;;;;;;;;;;;;;;;;5070945;28;19913;-84
2022/04/20 05:25:30;;;;;;;;;;;;;;;;;;5056647;28;19959;-85
2022/04/20 05:27:55;;;;;;;;;;;;;;;;;;5055372;28;19948;-84
2022/04/20 05:30:20;;;;;;;;;;;;;;;;;;5054782;28;19909;-84
2022/04/20 05:32:45;;;;;;;;;;;;;;;;;;5055152;28;20250;-84
2022/04/20 05:35:10;;;;;;;;;;;;;;;;;;5063067;28;19912;-84
2022/04/20 05:43:03;;;;;;;;;;;;;;;;;;5076180;28;19915;-84
2022/04/20 05:45:28;;;;;;;;;;;;;;;;;;5074641;28;20011;-85
2022/04/20 05:47:53;;;;;;;;;;;;;;;;;;5069392;28;19916;-84
2022/04/20 05:50:18;;;;;;;;;;;;;;;;;;5055856;28;19916;-84
2022/04/20 05:52:43;;;;;;;;;;;;;;;;;;5054763;28;19913;-84
2022/04/20 05:55:09;;;;;;;;;;;;;;;;;;5055800;28;19920;-85
2022/04/20 05:57:34;;;;;;;;;;;;;;;;;;5060519;28;19912;-84
2022/04/20 05:59:59;;;;;;;;;;;;;;;;;;5074256;28;19913;-84
2022/04/20 06:02:24;;;;;;;;;;;;;;;;;;5074078;28;20002;-84
2022/04/20 06:04:49;;;;;;;;;;;;;;;;;;5074453;28;20374;-84
2022/04/20 06:07:14;;;;;;;;;;;;;;;;;;5071124;28;19919;-84
2022/04/20 06:09:40;;;;;;;;;;;;;;;;;;5054128;28;19995;-84
2022/04/20 06:12:05;;;;;;;;;;;;;;;;;;5053914;28;20024;-84
2022/04/20 06:14:30;;;;;;;;;;;;;;;;;;5054172;28;20011;-84
2022/04/20 06:16:55;;;;;;;;;;;;;;;;;;5055353;28;20011;-85
2022/04/20 06:19:20;;;;;;;;;;;;;;;;;;5061396;28;19923;-85
2022/04/20 06:21:45;;;;;;;;;;;;;;;;;;5074058;28;19913;-85
2022/04/20 06:24:10;;;;;;;;;;;;;;;;;;5075313;28;19908;-85
2022/04/20 06:29:39;;;;;;;;;;;;;;;;;;5031672;28;19961;-85
2022/04/20 06:32:05;;;;;;;;;;;;;;;;;;5015258;28;19972;-85
2022/04/20 06:34:30;;;;;;;;;;;;;;;;;;5045937;28;19917;-85
2022/04/20 06:36:55;;;;;;;;;;;;;;;;;;5070727;28;19916;-85
2022/04/20 06:39:21;;;;;;;;;;;;;;;;;;5073314;28;20281;-85
2022/04/20 06:41:46;;;;;;;;;;;;;;;;;;5070123;28;19917;-85
2022/04/20 06:44:11;;;;;;;;;;;;;;;;;;5067294;28;19965;-85
2022/04/20 06:46:36;;;;;;;;;;;;;;;;;;5072868;28;19965;-85
2022/04/20 06:49:01;;;;;;;;;;;;;;;;;;5074518;28;19917;-86
2022/04/20 06:58:31;;;;;;;;;;;;;;;;;;5073440;28;19974;-85
2022/04/20 06:59:39;;;;;;;;;;;;;;;;;;5074307;28;19920;-85
2022/04/20 07:02:04;;;;;;;;;;;;;;;;;;5072806;28;19912;-85
2022/04/20 07:04:29;;;;;;;;;;;;;;;;;;5073406;28;19930;-85
2022/04/20 07:06:55;;;;;;;;;;;;;;;;;;5069956;28;19995;-86
2022/04/20 07:09:20;;;;;;;;;;;;;;;;;;5069550;28;20360;-85
2022/04/20 07:11:45;;;;;;;;;;;;;;;;;;5070435;28;19920;-85
2022/04/20 07:14:10;;;;;;;;;;;;;;;;;;5068968;28;19970;-85
2022/04/20 07:16:35;;;;;;;;;;;;;;;;;;5067196;28;19912;-85
2022/04/20 07:19:02;;;;;;;;;;;;;;;;;;5063423;28;19912;-85
2022/04/20 07:21:27;;;;;;;;;;;;;;;;;;5068540;28;19959;-85
2022/04/20 07:23:52;;;;;;;;;;;;;;;;;;5052869;28;19909;-85
2022/04/20 07:26:18;;;;;;;;;;;;;;;;;;5053199;28;20364;-85
2022/04/20 07:28:43;;;;;;;;;;;;;;;;;;5071289;28;20421;-85
2022/04/20 07:31:08;;;;;;;;;;;;;;;;;;5070901;28;20279;-85
2022/04/20 07:33:33;;;;;;;;;;;;;;;;;;5073548;28;20375;-85
2022/04/20 07:35:58;;;;;;;;;;;;;;;;;;5068598;28;19908;-85
2022/04/20 07:38:25;;;;;;;;;;;;;;;;;;5063554;28;19912;-85
2022/04/20 07:40:51;;;;;;;;;;;;;;;;;;5057961;28;20415;-85
2022/04/20 07:43:16;;;;;;;;;;;;;;;;;;5066905;28;19913;-85
2022/04/20 07:45:41;;;;;;;;;;;;;;;;;;5070533;28;20041;-85
2022/04/20 07:48:06;;;;;;;;;;;;;;;;;;5070266;28;20428;-85
2022/04/20 07:50:31;;;;;;;;;;;;;;;;;;5072929;28;19913;-85
2022/04/20 07:52:56;;;;;;;;;;;;;;;;;;5070343;28;19917;-85
2022/04/20 07:55:21;;;;;;;;;;;;;;;;;;5076425;28;19934;-85
2022/04/20 07:57:47;;;;;;;;;;;;;;;;;;5077155;28;20370;-85
2022/04/20 08:00:12;;;;;;;;;;;;;;;;;;5071035;28;19917;-85
2022/04/20 08:02:37;;;;;;;;;;;;;;;;;;5068172;28;19970;-84
2022/04/20 08:05:02;;;;;;;;;;;;;;;;;;5068253;28;19916;-85
2022/04/20 08:07:27;;;;;;;;;;;;;;;;;;5070048;28;19966;-86
2022/04/20 08:09:52;;;;;;;;;;;;;;;;;;5072497;28;19963;-85
2022/04/20 08:12:17;;;;;;;;;;;;;;;;;;5071781;28;19920;-85
2022/04/20 08:14:42;;;;;;;;;;;;;;;;;;5071983;28;19920;-85
2022/04/20 08:17:07;;;;;;;;;;;;;;;;;;5062665;28;19920;-85
2022/04/20 08:19:33;;;;;;;;;;;;;;;;;;5052139;28;19920;-85
2022/04/20 08:21:58;;;;;;;;;;;;;;;;;;5053318;28;19916;-85
2022/04/20 08:24:23;;;;;;;;;;;;;;;;;;5052818;28;19934;-85
2022/04/20 08:26:48;;;;;;;;;;;;;;;;;;5061431;28;20015;-85
2022/04/20 08:29:13;;;;;;;;;;;;;;;;;;5068712;28;20261;-85
2022/04/20 08:31:39;;;;;;;;;;;;;;;;;;5068511;28;19959;-84
2022/04/20 08:34:04;;;;;;;;;;;;;;;;;;5061511;28;19920;-85
2022/04/20 08:36:29;;;;;;;;;;;;;;;;;;5072206;28;19912;-85
2022/04/20 08:38:54;;;;;;;;;;;;;;;;;;5069893;28;20309;-85
2022/04/20 08:41:19;;;;;;;;;;;;;;;;;;5072037;28;19909;-85
2022/04/20 08:43:44;;;;;;;;;;;;;;;;;;5073081;28;19912;-85
2022/04/20 08:46:10;;;;;;;;;;;;;;;;;;5067464;28;20026;-85
2022/04/20 08:48:35;;;;;;;;;;;;;;;;;;5051973;28;20015;-85
2022/04/20 08:51:00;;;;;;;;;;;;;;;;;;5054817;28;19920;-85
2022/04/20 08:53:26;;;;;;;;;;;;;;;;;;5100620;28;19909;-85
2022/04/20 08:57:15;;;;;;;;;;;;;;;;;;5072851;28;19932;-84
2022/04/20 08:58:36;;;;;;;;;;;;;;;;;;5072203;28;20294;-85
2022/04/20 09:01:01;;;;;;;;;;;;;;;;;;5071689;28;20282;-85
2022/04/20 09:03:26;;;;;;;;;;;;;;;;;;5071765;28;19917;-84
2022/04/20 09:05:51;;;;;;;;;;;;;;;;;;5071771;28;19915;-85
2022/04/20 09:08:16;;;;;;;;;;;;;;;;;;5071654;28;19966;-85
2022/04/20 09:10:41;;;;;;;;;;;;;;;;;;5070329;28;19959;-85
2022/04/20 09:13:07;;;;;;;;;;;;;;;;;;5073031;28;20015;-84
2022/04/20 09:15:33;;;;;;;;;;;;;;;;;;5071766;28;20360;-85
2022/04/20 09:17:58;;;;;;;;;;;;;;;;;;5071554;28;19916;-85
2022/04/20 09:20:23;;;;;;;;;;;;;;;;;;5071589;28;19913;-85
2022/04/20 09:22:48;;;;;;;;;;;;;;;;;;5058069;28;19986;-84
2022/04/20 09:25:15;;;;;;;;;;;;;;;;;;5056559;28;20007;-84
2022/04/20 09:27:41;;;;;;;;;;;;;;;;;;5054931;28;19909;-85
2022/04/20 09:30:07;;;;;;;;;;;;;;;;;;5063376;28;20283;-85
2022/04/20 09:32:32;;;;;;;;;;;;;;;;;;5076223;28;19908;-85
2022/04/20 09:34:58;;;;;;;;;;;;;;;;;;5074877;28;20011;-85
2022/04/20 09:37:24;;;;;;;;;;;;;;;;;;5075207;28;19955;-85
2022/04/20 09:39:52;;;;;;;;;;;;;;;;;;5070549;28;19925;-85
2022/04/20 09:42:17;;;;;;;;;;;;;;;;;;5054762;28;19958;-84
2022/04/20 09:44:42;;;;;;;;;;;;;;;;;;5054947;28;19921;-85
2022/04/20 09:49:51;;;;;;;;;;;;;;;;;;5055974;28;19959;-85
2022/04/20 09:52:16;;;;;;;;;;;;;;;;;;5059167;28;20335;-85
2022/04/20 09:54:41;;;;;;;;;;;;;;;;;;5055899;28;20359;-85
2022/04/20 09:57:07;;;;;;;;;;;;;;;;;;5055812;28;19928;-84
2022/04/20 09:59:32;;;;;;;;;;;;;;;;;;5088191;28;19920;-84
2022/04/20 10:01:57;;;;;;;;;;;;;;;;;;5088289;28;19932;-84
2022/04/20 10:04:23;;;;;;;;;;;;;;;;;;5055795;28;20379;-85
2022/04/20 10:06:48;;;;;;;;;;;;;;;;;;5054453;28;19913;-85
2022/04/20 10:09:13;;;;;;;;;;;;;;;;;;5054574;28;20345;-84
2022/04/20 10:11:38;;;;;;;;;;;;;;;;;;5054428;28;19909;-84
2022/04/20 10:16:47;;;;;;;;;;;;;;;;;;5066446;28;19919;-84
2022/04/20 10:19:12;;;;;;;;;;;;;;;;;;5074155;28;20275;-84
2022/04/20 10:21:37;;;;;;;;;;;;;;;;;;5074235;28;19916;-84
2022/04/20 10:24:05;;;;;;;;;;;;;;;;;;5074273;28;19939;-84
2022/04/20 10:26:30;;;;;;;;;;;;;;;;;;5074035;28;19913;-84
2022/04/20 10:28:55;;;;;;;;;;;;;;;;;;5069724;28;19913;-84
2022/04/20 10:31:21;;;;;;;;;;;;;;;;;;5053902;28;19909;-84
2022/04/20 10:33:46;;;;;;;;;;;;;;;;;;5063109;28;20327;-84
2022/04/20 10:36:14;;;;;;;;;;;;;;;;;;5073330;28;19919;-84
2022/04/20 10:38:39;;;;;;;;;;;;;;;;;;5073144;28;20422;-84
2022/04/20 10:41:05;;;;;;;;;;;;;;;;;;5071939;28;20372;-84
2022/04/20 10:43:31;;;;;;;;;;;;;;;;;;5071102;28;19912;-84
2022/04/20 10:45:56;;;;;;;;;;;;;;;;;;5071797;28;19916;-84
2022/04/20 10:48:22;;;;;;;;;;;;;;;;;;5073107;28;20318;-84
2022/04/20 10:50:48;;;;;;;;;;;;;;;;;;5074188;28;20344;-84
2022/04/20 10:53:13;;;;;;;;;;;;;;;;;;5073126;28;20007;-84
2022/04/20 10:55:38;;;;;;;;;;;;;;;;;;5072883;28;19918;-85
2022/04/20 10:58:03;;;;;;;;;;;;;;;;;;5072659;28;20003;-84
2022/04/20 11:00:30;;;;;;;;;;;;;;;;;;5074080;28;19913;-84
2022/04/20 11:02:55;;;;;;;;;;;;;;;;;;5072729;28;20353;-84
2022/04/20 11:05:20;;;;;;;;;;;;;;;;;;5073292;28;19943;-85
2022/04/20 11:07:46;;;;;;;;;;;;;;;;;;5074053;28;19913;-84
2022/04/20 11:10:11;;;;;;;;;;;;;;;;;;5073272;28;19992;-84
2022/04/20 11:20:47;;;;;;;;;;;;;;;;;;5074210;28;19924;-84
2022/04/20 11:23:12;;;;;;;;;;;;;;;;;;5071103;28;19912;-84
2022/04/20 11:25:38;;;;;;;;;;;;;;;;;;5069696;28;19912;-84
2022/04/20 11:28:03;;;;;;;;;;;;;;;;;;5074215;28;20360;-84
2022/04/20 11:30:28;;;;;;;;;;;;;;;;;;5072506;28;19915;-85
2022/04/20 11:32:53;;;;;;;;;;;;;;;;;;5071991;28;19919;-84
2022/04/20 11:35:18;;;;;;;;;;;;;;;;;;5073949;28;19961;-84
2022/04/20 11:37:43;;;;;;;;;;;;;;;;;;5072725;28;20011;-84
2022/04/20 11:40:11;;;;;;;;;;;;;;;;;;5072768;28;20245;-84
2022/04/20 11:42:36;;;;;;;;;;;;;;;;;;5072572;28;20322;-84
2022/04/20 11:45:02;;;;;;;;;;;;;;;;;;5072387;28;20360;-84
2022/04/20 11:47:27;;;;;;;;;;;;;;;;;;5071923;28;20427;-84
2022/04/20 11:49:53;;;;;;;;;;;;;;;;;;5072655;28;19951;-84
2022/04/20 11:52:21;;;;;;;;;;;;;;;;;;5072435;28;20279;-84
2022/04/20 11:54:46;;;;;;;;;;;;;;;;;;5072387;28;19916;-85
2022/04/20 11:57:11;;;;;;;;;;;;;;;;;;5068549;28;19963;-84
2022/04/20 11:59:36;;;;;;;;;;;;;;;;;;5052364;28;19920;-84
2022/04/20 12:02:01;;;;;;;;;;;;;;;;;;5052455;28;20365;-84
2022/04/20 12:04:27;;;;;;;;;;;;;;;;;;5053602;28;20375;-84
2022/04/20 12:06:52;;;;;;;;;;;;;;;;;;5052252;28;19966;-84
2022/04/20 12:09:17;;;;;;;;;;;;;;;;;;5053046;28;19913;-84
2022/04/20 12:11:42;;;;;;;;;;;;;;;;;;5053820;28;19940;-84
2022/04/20 12:14:07;;;;;;;;;;;;;;;;;;5052251;28;20261;-84
2022/04/20 12:16:32;;;;;;;;;;;;;;;;;;5052058;28;20078;-84
2022/04/20 12:18:57;;;;;;;;;;;;;;;;;;5052209;28;20050;-84
2022/04/20 12:21:23;;;;;;;;;;;;;;;;;;5057262;28;19913;-84
2022/04/20 12:23:48;;;;;;;;;;;;;;;;;;5072232;28;19908;-84
2022/04/20 12:26:13;;;;;;;;;;;;;;;;;;5072258;28;20356;-85
2022/04/20 12:28:41;;;;;;;;;;;;;;;;;;5072255;28;19913;-84
2022/04/20 12:31:08;;;;;;;;;;;;;;;;;;5071158;28;20292;-84
2022/04/20 12:33:33;;;;;;;;;;;;;;;;;;5071927;28;19908;-84
2022/04/20 12:35:58;;;;;;;;;;;;;;;;;;5073321;28;20325;-84
2022/04/20 12:38:23;;;;;;;;;;;;;;;;;;5073329;28;19920;-84
2022/04/20 12:40:48;;;;;;;;;;;;;;;;;;5071767;28;19923;-84
2022/04/20 12:43:14;;;;;;;;;;;;;;;;;;5072059;28;19920;-84
2022/04/20 12:45:39;;;;;;;;;;;;;;;;;;5071812;28;19908;-84
2022/04/20 12:48:04;;;;;;;;;;;;;;;;;;5071934;28;19965;-84
2022/04/20 12:50:29;;;;;;;;;;;;;;;;;;5071851;28;19953;-84
2022/04/20 12:52:55;;;;;;;;;;;;;;;;;;5071721;28;19931;-84
2022/04/20 12:55:20;;;;;;;;;;;;;;;;;;5070012;28;19912;-85
2022/04/20 13:03:13;;;;;;;;;;;;;;;;;;5057016;28;19935;-85
2022/04/20 13:05:38;;;;;;;;;;;;;;;;;;5056036;28;19916;-85
2022/04/20 13:08:03;;;;;;;;;;;;;;;;;;5055218;28;19917;-85
2022/04/20 13:10:29;;;;;;;;;;;;;;;;;;5055702;28;19909;-84
2022/04/20 13:12:54;;;;;;;;;;;;;;;;;;5055486;28;19913;-84
2022/04/20 13:15:19;;;;;;;;;;;;;;;;;;5055274;28;20010;-85
2022/04/20 13:17:45;;;;;;;;;;;;;;;;;;5058097;28;19947;-84
2022/04/20 13:20:10;;;;;;;;;;;;;;;;;;5075113;28;19917;-84
2022/04/20 13:22:35;;;;;;;;;;;;;;;;;;5075414;28;19913;-85
2022/04/20 13:27:54;;;;;;;;;;;;;;;;;;5076523;28;19963;-84
2022/04/20 13:30:19;;;;;;;;;;;;;;;;;;5075293;28;20027;-84
2022/04/20 13:32:44;;;;;;;;;;;;;;;;;;5074950;28;19944;-84
2022/04/20 13:35:09;;;;;;;;;;;;;;;;;;5075049;28;20011;-84
2022/04/20 13:37:34;;;;;;;;;;;;;;;;;;5076300;28;19908;-85
2022/04/20 13:40:00;;;;;;;;;;;;;;;;;;5074883;28;19957;-84
2022/04/20 13:42:25;;;;;;;;;;;;;;;;;;5071008;28;20410;-85
2022/04/20 13:44:50;;;;;;;;;;;;;;;;;;5054866;28;19909;-84
2022/04/20 13:47:16;;;;;;;;;;;;;;;;;;5055909;28;19917;-85
2022/04/20 13:49:41;;;;;;;;;;;;;;;;;;5054771;28;19908;-84
2022/04/20 13:52:06;;;;;;;;;;;;;;;;;;5054717;28;19912;-85
2022/04/20 13:54:31;;;;;;;;;;;;;;;;;;5054613;28;19912;-84
2022/04/20 13:56:56;;;;;;;;;;;;;;;;;;5071241;28;19912;-84
2022/04/20 13:59:21;;;;;;;;;;;;;;;;;;5071328;28;19921;-84
2022/04/20 14:01:47;;;;;;;;;;;;;;;;;;5071303;28;19916;-85
2022/04/20 14:04:12;;;;;;;;;;;;;;;;;;5071185;28;19909;-84
2022/04/20 14:06:37;;;;;;;;;;;;;;;;;;5071538;28;20368;-85
2022/04/20 14:09:03;;;;;;;;;;;;;;;;;;5054358;28;19954;-85
2022/04/20 14:11:28;;;;;;;;;;;;;;;;;;5072589;28;19920;-84
2022/04/20 14:13:53;;;;;;;;;;;;;;;;;;5074234;28;20316;-84
2022/04/20 14:16:18;;;;;;;;;;;;;;;;;;5073516;28;20003;-84
2022/04/20 14:18:43;;;;;;;;;;;;;;;;;;5074166;28;19923;-84
2022/04/20 14:21:09;;;;;;;;;;;;;;;;;;5074552;28;19916;-84
2022/04/20 14:23:34;;;;;;;;;;;;;;;;;;5075343;28;19916;-84
2022/04/20 14:34:11;;;;;;;;;;;;;;;;;;5075302;28;19920;-85
2022/04/20 14:36:36;;;;;;;;;;;;;;;;;;5073819;28;19909;-84
2022/04/20 14:39:01;;;;;;;;;;;;;;;;;;5075003;28;19916;-85
2022/04/20 14:41:26;;;;;;;;;;;;;;;;;;5069702;28;19924;-85
2022/04/20 14:43:51;;;;;;;;;;;;;;;;;;5053814;28;19932;-85
2022/04/20 14:46:17;;;;;;;;;;;;;;;;;;5053353;28;19924;-84
2022/04/20 14:48:42;;;;;;;;;;;;;;;;;;5054785;28;20307;-84
2022/04/20 14:51:07;;;;;;;;;;;;;;;;;;5065564;28;19920;-84
2022/04/20 14:53:32;;;;;;;;;;;;;;;;;;5075172;28;19912;-84
2022/04/20 14:55:57;;;;;;;;;;;;;;;;;;5073650;28;19963;-85
2022/04/20 14:58:23;;;;;;;;;;;;;;;;;;5073374;28;19908;-85
2022/04/20 15:00:48;;;;;;;;;;;;;;;;;;5069464;28;19917;-83
2022/04/20 15:03:13;;;;;;;;;;;;;;;;;;5053295;28;19908;-85
2022/04/20 15:05:38;;;;;;;;;;;;;;;;;;5053268;28;19912;-84
2022/04/20 15:08:03;;;;;;;;;;;;;;;;;;5053382;28;19912;-84
2022/04/20 15:10:29;;;;;;;;;;;;;;;;;;5054049;28;20323;-84
2022/04/20 15:12:54;;;;;;;;;;;;;;;;;;5053048;28;20422;-84
2022/04/20 15:15:19;;;;;;;;;;;;;;;;;;5054458;28;19909;-84
2022/04/20 15:17:44;;;;;;;;;;;;;;;;;;5058675;28;19913;-85
2022/04/20 15:20:10;;;;;;;;;;;;;;;;;;5055575;28;19921;-84
2022/04/20 15:22:35;;;;;;;;;;;;;;;;;;5053130;28;19959;-84
2022/04/20 15:25:00;;;;;;;;;;;;;;;;;;5052872;28;20016;-85
2022/04/20 15:27:26;;;;;;;;;;;;;;;;;;5059733;28;19923;-84
2022/04/20 15:29:51;;;;;;;;;;;;;;;;;;5074181;28;19909;-85
2022/04/20 15:32:16;;;;;;;;;;;;;;;;;;5072810;28;20364;-85
2022/04/20 15:34:41;;;;;;;;;;;;;;;;;;5072856;28;19958;-85
2022/04/20 15:37:06;;;;;;;;;;;;;;;;;;5071771;28;19919;-84
2022/04/20 15:39:31;;;;;;;;;;;;;;;;;;5073725;28;19954;-85
2022/04/20 15:41:56;;;;;;;;;;;;;;;;;;5072651;28;20414;-85
2022/04/20 15:44:21;;;;;;;;;;;;;;;;;;5072738;28;19915;-85
2022/04/20 15:46:46;;;;;;;;;;;;;;;;;;5071322;28;19927;-85
2022/04/20 15:49:12;;;;;;;;;;;;;;;;;;5069361;28;20319;-85
2022/04/20 15:51:37;;;;;;;;;;;;;;;;;;5053719;28;19920;-85
2022/04/20 15:54:02;;;;;;;;;;;;;;;;;;5053833;28;19916;-85
2022/04/20 16:02:01;;;;;;;;;;;;;;;;;;5053559;28;20042;-85
2022/04/20 16:04:32;;;;;;;;;;;;;;;;;;5052115;28;19916;-84
2022/04/20 16:06:58;;;;;;;;;;;;;;;;;;5052413;28;19909;-85
2022/04/20 16:09:23;;;;;;;;;;;;;;;;;;5067516;28;19916;-85
2022/04/20 16:11:48;;;;;;;;;;;;;;;;;;5052066;28;20005;-85
2022/04/20 16:14:13;;;;;;;;;;;;;;;;;;5053681;28;20008;-85
2022/04/20 16:16:42;;;;;;;;;;;;;;;;;;5053427;28;19923;-85
2022/04/20 16:19:07;;;;;;;;;;;;;;;;;;5066739;28;19991;-85
2022/04/20 16:21:32;;;;;;;;;;;;;;;;;;5073570;28;19951;-85
2022/04/20 16:23:57;;;;;;;;;;;;;;;;;;5072302;28;20359;-85
2022/04/20 16:26:22;;;;;;;;;;;;;;;;;;5072150;28;19912;-85
2022/04/20 16:28:47;;;;;;;;;;;;;;;;;;5070605;28;19912;-85
2022/04/20 16:31:12;;;;;;;;;;;;;;;;;;5070446;28;19917;-85
2022/04/20 16:33:37;;;;;;;;;;;;;;;;;;5075942;28;19909;-85
2022/04/20 16:36:03;;;;;;;;;;;;;;;;;;5075984;28;19909;-85
2022/04/20 16:38:28;;;;;;;;;;;;;;;;;;5072098;28;20348;-85
2022/04/20 16:40:53;;;;;;;;;;;;;;;;;;5055830;28;20005;-85
2022/04/20 16:43:19;;;;;;;;;;;;;;;;;;5055933;28;19913;-85
2022/04/20 16:45:44;;;;;;;;;;;;;;;;;;5055702;28;19909;-85
2022/04/20 16:48:09;;;;;;;;;;;;;;;;;;5060359;28;20295;-85
2022/04/20 16:50:34;;;;;;;;;;;;;;;;;;5075969;28;20265;-84
2022/04/20 16:52:59;;;;;;;;;;;;;;;;;;5077303;28;19914;-85
2022/04/20 16:55:24;;;;;;;;;;;;;;;;;;5075836;28;20287;-85
2022/04/20 16:57:50;;;;;;;;;;;;;;;;;;5074288;28;19919;-85
2022/04/20 17:00:18;;;;;;;;;;;;;;;;;;5055623;28;19919;-85
2022/04/20 17:02:43;;;;;;;;;;;;;;;;;;5055733;28;20280;-85
2022/04/20 17:05:08;;;;;;;;;;;;;;;;;;5055586;28;19909;-85
2022/04/20 17:07:33;;;;;;;;;;;;;;;;;;5055761;28;19908;-85
2022/04/20 17:09:59;;;;;;;;;;;;;;;;;;5074121;28;20352;-85
2022/04/20 17:12:24;;;;;;;;;;;;;;;;;;5075492;28;20007;-85
2022/04/20 17:14:49;;;;;;;;;;;;;;;;;;5075091;28;19912;-85
2022/04/20 17:17:14;;;;;;;;;;;;;;;;;;5075205;28;19908;-85
2022/04/20 17:19:39;;;;;;;;;;;;;;;;;;5075509;28;19917;-85
2022/04/20 17:27:32;;;;;;;;;;;;;;;;;;5076583;28;19916;-85
2022/04/20 17:29:57;;;;;;;;;;;;;;;;;;5059014;28;19913;-85
2022/04/20 17:32:22;;;;;;;;;;;;;;;;;;5056322;28;19909;-85